Time,TemperatureF,DewpointF,PressureIn,WindDirection,WindDirectionDegrees,WindSpeedMPH,WindSpeedGustMPH,Humidity,HourlyPrecipIn,Conditions,Clouds,dailyrainin,SoftwareType,DateUTC
2013-02-14 00:00:00,35.6,31.2,29.78,SSE,149,3.0,4.0,84,0.00,,,0.00,Wunderground v.1.15,2013-02-14 06:00:00,
2013-02-14 00:05:00,35.6,31.2,29.78,SE,139,3.0,5.0,84,0.00,,,0.00,Wunderground v.1.15,2013-02-14 06:05:00,
2013-02-14 00:15:00,35.6,31.2,29.78,SSE,165,4.0,4.0,84,0.00,,,0.00,Wunderground v.1.15,2013-02-14 06:15:00,
2013-02-14 00:25:00,35.7,31.3,29.77,SSE,149,5.0,5.0,84,0.00,,,0.00,Wunderground v.1.15,2013-02-14 06:25:00,
2013-02-14 00:30:00,35.7,31.3,29.76,SSE,155,5.0,5.0,84,0.00,,,0.00,Wunderground v.1.15,2013-02-14 06:30:00,
2013-02-14 00:35:00,35.7,31.3,29.76,SSE,159,5.0,6.0,84,0.00,,,0.00,Wunderground v.1.15,2013-02-14 06:35:00,
2013-02-14 00:40:00,35.8,31.4,29.76,SE,138,4.0,4.0,84,0.00,,,0.00,Wunderground v.1.15,2013-02-14 06:40:00,
2013-02-14 00:45:00,35.9,31.2,29.76,SSE,165,3.0,5.0,83,0.00,,,0.00,Wunderground v.1.15,2013-02-14 06:45:00,
2013-02-14 00:50:00,35.9,31.2,29.76,SSE,153,3.0,7.0,83,0.00,,,0.00,Wunderground v.1.15,2013-02-14 06:50:00,
2013-02-14 01:00:00,35.9,31.2,29.75,South,178,5.0,5.0,83,0.00,,,0.00,Wunderground v.1.15,2013-02-14 07:00:00,
2013-02-14 01:05:00,35.9,31.2,29.75,SSE,155,5.0,5.0,83,0.00,,,0.00,Wunderground v.1.15,2013-02-14 07:05:00,
2013-02-14 01:15:00,35.9,31.2,29.75,SE,144,4.0,7.0,83,0.00,,,0.00,Wunderground v.1.15,2013-02-14 07:15:00,
2013-02-14 01:20:00,35.9,31.2,29.75,SE,144,4.0,4.0,83,0.00,,,0.00,Wunderground v.1.15,2013-02-14 07:20:00,
2013-02-14 01:30:00,36.1,31.4,29.74,SE,141,2.0,2.0,83,0.00,,,0.00,Wunderground v.1.15,2013-02-14 07:30:00,
2013-02-14 01:40:00,36.1,31.4,29.74,SE,131,1.0,1.0,83,0.00,,,0.00,Wunderground v.1.15,2013-02-14 07:40:00,
2013-02-14 01:45:00,36.1,31.4,29.74,SE,130,0.0,1.0,83,0.00,,,0.00,Wunderground v.1.15,2013-02-14 07:45:00,
2013-02-14 01:50:00,36.2,31.5,29.74,SW,215,0.0,0.0,83,0.00,,,0.00,Wunderground v.1.15,2013-02-14 07:50:00,
2013-02-14 01:55:00,36.3,31.6,29.74,ESE,113,0.0,0.0,83,0.00,,,0.00,Wunderground v.1.15,2013-02-14 07:55:00,
2013-02-14 02:00:00,36.4,31.4,29.74,SSE,154,1.0,5.0,82,0.00,,,0.00,Wunderground v.1.15,2013-02-14 08:00:00,
2013-02-14 02:05:00,36.5,31.5,29.74,SE,144,2.0,5.0,82,0.00,,,0.00,Wunderground v.1.15,2013-02-14 08:05:00,
2013-02-14 02:15:00,36.4,31.4,29.74,SE,142,1.0,2.0,82,0.00,,,0.00,Wunderground v.1.15,2013-02-14 08:15:00,
2013-02-14 02:20:00,36.4,31.4,29.74,SE,146,1.0,1.0,82,0.00,,,0.00,Wunderground v.1.15,2013-02-14 08:20:00,
2013-02-14 02:25:00,36.2,31.2,29.74,SSW,202,0.0,1.0,82,0.00,,,0.00,Wunderground v.1.15,2013-02-14 08:25:00,
2013-02-14 02:35:00,35.9,30.9,29.74,SSW,194,1.0,9.0,82,0.00,,,0.00,Wunderground v.1.15,2013-02-14 08:35:00,
2013-02-14 02:40:00,36.2,31.2,29.74,SSW,202,1.0,1.0,82,0.00,,,0.00,Wunderground v.1.15,2013-02-14 08:40:00,
2013-02-14 02:45:00,36.5,31.2,29.73,West,268,1.0,1.0,81,0.00,,,0.00,Wunderground v.1.15,2013-02-14 08:45:00,
2013-02-14 02:50:00,36.6,31.3,29.73,SW,218,1.0,3.0,81,0.00,,,0.00,Wunderground v.1.15,2013-02-14 08:50:00,
2013-02-14 02:55:00,36.5,30.9,29.73,SW,215,1.0,3.0,80,0.00,,,0.00,Wunderground v.1.15,2013-02-14 08:55:00,
2013-02-14 03:00:00,36.4,31.1,29.73,SE,144,1.0,1.0,81,0.00,,,0.00,Wunderground v.1.15,2013-02-14 09:00:00,
2013-02-14 03:05:00,36.2,30.9,29.73,West,271,1.0,1.0,81,0.00,,,0.00,Wunderground v.1.15,2013-02-14 09:05:00,
2013-02-14 03:15:00,36.0,30.7,29.72,WSW,241,0.0,1.0,81,0.00,,,0.00,Wunderground v.1.15,2013-02-14 09:15:00,
2013-02-14 03:20:00,35.9,30.6,29.72,South,182,1.0,1.0,81,0.00,,,0.00,Wunderground v.1.15,2013-02-14 09:20:00,
2013-02-14 09:25:00,35.2,30.6,29.81,WNW,298,5.0,8.0,83,0.00,,,0.00,Wunderground v.1.15,2013-02-14 15:25:00,
2013-02-14 09:34:00,35.3,30.7,29.81,WNW,298,4.0,4.0,83,0.00,,,0.00,Wunderground v.1.15,2013-02-14 15:34:00,
2013-02-14 09:40:00,35.4,30.8,29.81,WNW,288,4.0,4.0,83,0.00,,,0.00,Wunderground v.1.15,2013-02-14 15:40:00,
2013-02-14 09:50:00,35.6,30.6,29.82,NNW,333,6.0,8.0,82,0.00,,,0.00,Wunderground v.1.15,2013-02-14 15:50:00,
2013-02-14 09:55:00,35.6,30.6,29.81,NNW,335,6.0,6.0,82,0.00,,,0.00,Wunderground v.1.15,2013-02-14 15:55:00,
2013-02-14 10:00:00,35.7,30.7,29.82,West,269,6.0,6.0,82,0.00,,,0.00,Wunderground v.1.15,2013-02-14 16:00:00,
2013-02-14 10:05:00,35.8,30.5,29.83,NW,306,5.0,8.0,81,0.00,,,0.00,Wunderground v.1.15,2013-02-14 16:05:00,
2013-02-14 10:15:00,35.8,30.2,29.83,WNW,302,8.0,10.0,80,0.00,,,0.00,Wunderground v.1.15,2013-02-14 16:15:00,
2013-02-14 10:20:00,35.8,30.2,29.84,WNW,297,9.0,9.0,80,0.00,,,0.00,Wunderground v.1.15,2013-02-14 16:20:00,
2013-02-14 10:30:00,36.1,30.5,29.85,NNW,336,6.0,6.0,80,0.00,,,0.00,Wunderground v.1.15,2013-02-14 16:30:00,
2013-02-14 10:40:00,36.1,30.2,29.85,NW,322,7.0,7.0,79,0.00,,,0.00,Wunderground v.1.15,2013-02-14 16:40:00,
2013-02-14 10:45:00,36.0,30.1,29.85,NNW,336,9.0,12.0,79,0.00,,,0.00,Wunderground v.1.15,2013-02-14 16:45:00,
2013-02-14 10:50:00,35.9,30.0,29.86,NW,309,9.0,9.0,79,0.00,,,0.00,Wunderground v.1.15,2013-02-14 16:50:00,
2013-02-14 10:55:00,35.9,30.0,29.86,NNW,333,9.0,9.0,79,0.00,,,0.00,Wunderground v.1.15,2013-02-14 16:55:00,
2013-02-14 11:00:00,36.1,30.2,29.86,NNW,342,8.0,8.0,79,0.00,,,0.00,Wunderground v.1.15,2013-02-14 17:00:00,
2013-02-14 11:05:00,36.6,30.7,29.86,NNW,333,8.0,8.0,79,0.00,,,0.00,Wunderground v.1.15,2013-02-14 17:05:00,
2013-02-14 11:15:00,36.8,30.6,29.88,NNW,344,9.0,14.0,78,0.00,,,0.00,Wunderground v.1.15,2013-02-14 17:15:00,
2013-02-14 11:20:00,37.0,30.1,29.88,NW,315,9.0,9.0,76,0.00,,,0.00,Wunderground v.1.15,2013-02-14 17:20:00,
2013-02-14 11:25:00,37.7,30.5,29.88,NW,306,9.0,11.0,75,0.00,,,0.00,Wunderground v.1.15,2013-02-14 17:25:00,
2013-02-14 11:35:00,38.6,30.4,29.89,NNW,331,9.0,11.0,72,0.00,,,0.00,Wunderground v.1.15,2013-02-14 17:35:00,
2013-02-14 11:40:00,39.3,30.3,29.89,WNW,292,9.0,10.0,70,0.00,,,0.00,Wunderground v.1.15,2013-02-14 17:40:00,
2013-02-14 11:45:00,39.6,30.6,29.89,NNW,327,9.0,10.0,70,0.00,,,0.00,Wunderground v.1.15,2013-02-14 17:45:00,
2013-02-14 11:50:00,39.2,29.9,29.89,NNW,327,9.0,9.0,69,0.00,,,0.00,Wunderground v.1.15,2013-02-14 17:50:00,
2013-02-14 11:55:00,39.0,29.7,29.90,NW,312,8.0,13.0,69,0.00,,,0.00,Wunderground v.1.15,2013-02-14 17:55:00,
2013-02-14 12:00:00,38.8,29.8,29.89,NW,321,8.0,8.0,70,0.00,,,0.00,Wunderground v.1.15,2013-02-14 18:00:00,
2013-02-14 12:05:00,38.8,29.8,29.89,NW,319,9.0,9.0,70,0.00,,,0.00,Wunderground v.1.15,2013-02-14 18:05:00,
2013-02-14 12:15:00,39.0,29.7,29.89,NNW,329,9.0,10.0,69,0.00,,,0.00,Wunderground v.1.15,2013-02-14 18:15:00,
2013-02-14 12:20:00,38.6,29.7,29.90,NNW,342,10.0,10.0,70,0.00,,,0.00,Wunderground v.1.15,2013-02-14 18:20:00,
2013-02-14 12:25:00,39.0,29.3,29.90,North,355,9.0,14.0,68,0.00,,,0.00,Wunderground v.1.15,2013-02-14 18:25:00,
2013-02-14 12:35:00,38.6,28.9,29.89,NNW,330,8.0,10.0,68,0.00,,,0.00,Wunderground v.1.15,2013-02-14 18:35:00,
2013-02-14 12:40:00,38.6,28.9,29.90,NW,309,7.0,7.0,68,0.00,,,0.00,Wunderground v.1.15,2013-02-14 18:40:00,
2013-02-14 12:45:00,38.8,29.1,29.90,NNW,337,7.0,10.0,68,0.00,,,0.00,Wunderground v.1.15,2013-02-14 18:45:00,
2013-02-14 12:50:00,39.2,29.9,29.90,NNW,338,7.0,7.0,69,0.00,,,0.00,Wunderground v.1.15,2013-02-14 18:50:00,
2013-02-14 12:55:00,39.5,29.4,29.90,North,5,7.0,7.0,67,0.00,,,0.00,Wunderground v.1.15,2013-02-14 18:55:00,
2013-02-14 13:00:00,39.3,29.3,29.90,NNW,334,6.0,8.0,67,0.00,,,0.00,Wunderground v.1.15,2013-02-14 19:00:00,
2013-02-14 13:05:00,38.9,27.8,29.90,NW,323,8.0,10.0,64,0.00,,,0.00,Wunderground v.1.15,2013-02-14 19:05:00,
2013-02-14 13:15:00,38.8,28.0,29.90,NNW,333,7.0,9.0,65,0.00,,,0.00,Wunderground v.1.15,2013-02-14 19:15:00,
2013-02-14 13:25:00,38.4,27.3,29.91,WNW,298,8.0,8.0,64,0.00,,,0.00,Wunderground v.1.15,2013-02-14 19:25:00,
2013-02-14 13:30:00,38.2,27.1,29.91,WNW,290,8.0,8.0,64,0.00,,,0.00,Wunderground v.1.15,2013-02-14 19:30:00,
2013-02-14 13:40:00,38.2,26.7,29.91,WNW,294,8.0,8.0,63,0.00,,,0.00,Wunderground v.1.15,2013-02-14 19:40:00,
2013-02-14 13:45:00,39.6,28.8,29.91,NNW,336,8.0,8.0,65,0.00,,,0.00,Wunderground v.1.15,2013-02-14 19:45:00,
2013-02-14 13:55:00,40.6,27.8,29.92,NW,309,7.0,12.0,60,0.00,,,0.00,Wunderground v.1.15,2013-02-14 19:55:00,
2013-02-14 14:05:00,40.3,27.1,29.93,WNW,296,8.0,13.0,59,0.00,,,0.00,Wunderground v.1.15,2013-02-14 20:05:00,
2013-02-14 14:14:00,41.0,26.5,29.93,NNW,342,8.0,9.0,56,0.00,,,0.00,Wunderground v.1.15,2013-02-14 20:14:00,
2013-02-14 14:20:00,41.1,26.6,29.93,WNW,291,8.0,8.0,56,0.00,,,0.00,Wunderground v.1.15,2013-02-14 20:20:00,
2013-02-14 14:25:00,41.0,25.6,29.94,West,273,8.0,9.0,54,0.00,,,0.00,Wunderground v.1.15,2013-02-14 20:25:00,
2013-02-14 14:30:00,40.5,25.1,29.94,West,267,9.0,9.0,54,0.00,,,0.00,Wunderground v.1.15,2013-02-14 20:30:00,
2013-02-14 14:35:00,40.2,24.9,29.95,WSW,240,9.0,9.0,54,0.00,,,0.00,Wunderground v.1.15,2013-02-14 20:35:00,
2013-02-14 14:40:00,40.7,25.3,29.95,WNW,294,8.0,8.0,54,0.00,,,0.00,Wunderground v.1.15,2013-02-14 20:40:00,
2013-02-14 14:50:00,39.2,23.5,29.95,NW,315,8.0,13.0,53,0.00,,,0.00,Wunderground v.1.15,2013-02-14 20:50:00,
2013-02-14 15:00:00,38.1,23.8,29.95,NW,326,9.0,9.0,56,0.00,,,0.00,Wunderground v.1.15,2013-02-14 21:00:00,
2013-02-14 15:05:00,38.0,24.1,29.96,NW,319,8.0,9.0,57,0.00,,,0.00,Wunderground v.1.15,2013-02-14 21:05:00,
2013-02-14 15:14:00,38.0,24.5,29.97,NW,315,6.0,7.0,58,0.00,,,0.00,Wunderground v.1.15,2013-02-14 21:14:00,
2013-02-14 15:20:00,37.8,24.3,29.97,NNW,330,6.0,6.0,58,0.00,,,0.00,Wunderground v.1.15,2013-02-14 21:20:00,
2013-02-14 15:25:00,37.5,24.5,29.97,NW,319,7.0,7.0,59,0.00,,,0.00,Wunderground v.1.15,2013-02-14 21:25:00,
2013-02-14 15:30:00,37.4,24.8,29.97,West,280,7.0,7.0,60,0.00,,,0.00,Wunderground v.1.15,2013-02-14 21:30:00,
2013-02-14 15:40:00,37.2,25.0,29.98,NW,323,7.0,7.0,61,0.00,,,0.00,Wunderground v.1.15,2013-02-14 21:40:00,
2013-02-14 15:45:00,37.3,25.1,29.98,NNW,331,6.0,7.0,61,0.00,,,0.00,Wunderground v.1.15,2013-02-14 21:45:00,
2013-02-14 15:50:00,37.4,24.4,29.98,NNW,340,7.0,7.0,59,0.00,,,0.00,Wunderground v.1.15,2013-02-14 21:50:00,
2013-02-14 15:55:00,37.6,25.0,29.98,NW,325,7.0,10.0,60,0.00,,,0.00,Wunderground v.1.15,2013-02-14 21:55:00,
2013-02-14 16:00:00,37.6,24.6,29.99,North,355,8.0,9.0,59,0.00,,,0.00,Wunderground v.1.15,2013-02-14 22:00:00,
2013-02-14 16:05:00,37.5,24.1,29.99,NNW,330,8.0,9.0,58,0.00,,,0.00,Wunderground v.1.15,2013-02-14 22:05:00,
2013-02-14 16:15:00,37.3,24.3,29.99,West,262,8.0,9.0,59,0.00,,,0.00,Wunderground v.1.15,2013-02-14 22:15:00,
2013-02-14 16:25:00,37.7,25.1,30.00,WNW,298,5.0,8.0,60,0.00,,,0.00,Wunderground v.1.15,2013-02-14 22:25:00,
2013-02-14 16:30:00,37.8,24.7,30.00,NW,311,5.0,5.0,59,0.00,,,0.00,Wunderground v.1.15,2013-02-14 22:30:00,
2013-02-14 16:35:00,37.9,25.2,30.01,NNW,327,5.0,6.0,60,0.00,,,0.00,Wunderground v.1.15,2013-02-14 22:35:00,
2013-02-14 16:45:00,37.3,24.7,30.02,NW,322,5.0,7.0,60,0.00,,,0.00,Wunderground v.1.15,2013-02-14 22:45:00,
2013-02-14 16:50:00,37.1,24.1,30.02,NW,323,5.0,12.0,59,0.00,,,0.00,Wunderground v.1.15,2013-02-14 22:50:00,
2013-02-14 16:55:00,36.7,23.7,30.02,NNW,338,7.0,12.0,59,0.00,,,0.00,Wunderground v.1.15,2013-02-14 22:55:00,
2013-02-14 17:05:00,36.2,24.0,30.03,NNW,330,6.0,8.0,61,0.00,,,0.00,Wunderground v.1.15,2013-02-14 23:05:00,
2013-02-14 17:15:00,35.9,23.7,30.03,NNW,331,5.0,9.0,61,0.00,,,0.00,Wunderground v.1.15,2013-02-14 23:15:00,
2013-02-14 17:25:00,35.5,24.1,30.04,NNW,335,4.0,9.0,63,0.00,,,0.00,Wunderground v.1.15,2013-02-14 23:25:00,
2013-02-14 17:30:00,35.3,24.0,30.04,NNW,342,6.0,11.0,63,0.00,,,0.00,Wunderground v.1.15,2013-02-14 23:30:00,
2013-02-14 17:35:00,35.2,24.2,30.04,WNW,302,6.0,11.0,64,0.00,,,0.00,Wunderground v.1.15,2013-02-14 23:35:00,
2013-02-14 17:45:00,35.0,24.0,30.04,NNW,330,4.0,7.0,64,0.00,,,0.00,Wunderground v.1.15,2013-02-14 23:45:00,
2013-02-14 17:50:00,34.9,23.9,30.04,NNW,333,4.0,4.0,64,0.00,,,0.00,Wunderground v.1.15,2013-02-14 23:50:00,
2013-02-14 17:55:00,34.8,23.9,30.04,NW,325,4.0,4.0,64,0.00,,,0.00,Wunderground v.1.15,2013-02-14 23:55:00,
2013-02-14 18:00:00,34.7,23.8,30.04,NNW,342,4.0,6.0,64,0.00,,,0.00,Wunderground v.1.15,2013-02-15 00:00:00,
2013-02-14 18:05:00,34.6,23.7,30.04,NW,326,4.0,6.0,64,0.00,,,0.00,Wunderground v.1.15,2013-02-15 00:05:00,
2013-02-14 18:15:00,34.4,24.2,30.04,NNW,331,1.0,3.0,66,0.00,,,0.00,Wunderground v.1.15,2013-02-15 00:15:00,
2013-02-14 18:24:00,34.1,24.3,30.05,NNW,345,1.0,4.0,67,0.00,,,0.00,Wunderground v.1.15,2013-02-15 00:24:00,
2013-02-14 18:30:00,34.0,24.5,30.05,NNW,345,1.0,1.0,68,0.00,,,0.00,Wunderground v.1.15,2013-02-15 00:30:00,
2013-02-14 18:35:00,33.9,24.1,30.05,NNW,345,0.0,1.0,67,0.00,,,0.00,Wunderground v.1.15,2013-02-15 00:35:00,
2013-02-14 18:40:00,34.0,24.2,30.05,NNW,345,0.0,0.0,67,0.00,,,0.00,Wunderground v.1.15,2013-02-15 00:40:00,
2013-02-14 18:50:00,34.1,24.6,30.06,West,260,1.0,1.0,68,0.00,,,0.00,Wunderground v.1.15,2013-02-15 00:50:00,
2013-02-14 18:55:00,34.3,24.8,30.06,West,261,1.0,1.0,68,0.00,,,0.00,Wunderground v.1.15,2013-02-15 00:55:00,
2013-02-14 19:00:00,34.2,25.1,30.06,WNW,286,1.0,4.0,69,0.00,,,0.00,Wunderground v.1.15,2013-02-15 01:00:00,
2013-02-14 19:05:00,34.0,25.2,30.06,NW,316,2.0,4.0,70,0.00,,,0.00,Wunderground v.1.15,2013-02-15 01:05:00,
2013-02-14 19:15:00,33.7,25.6,30.06,NW,326,2.0,3.0,72,0.00,,,0.00,Wunderground v.1.15,2013-02-15 01:15:00,
2013-02-14 19:20:00,33.3,25.9,30.07,WNW,284,3.0,3.0,74,0.00,,,0.00,Wunderground v.1.15,2013-02-15 01:20:00,
2013-02-14 19:25:00,33.1,26.4,30.07,NW,326,3.0,3.0,76,0.00,,,0.00,Wunderground v.1.15,2013-02-15 01:25:00,
2013-02-14 19:35:00,32.6,27.1,30.07,NW,322,3.0,4.0,80,0.00,,,0.00,Wunderground v.1.15,2013-02-15 01:35:00,
2013-02-14 20:14:00,31.0,27.9,30.07,WNW,302,0.0,0.0,88,0.00,,,0.00,Wunderground v.1.15,2013-02-15 02:14:00,
2013-02-14 20:20:00,30.8,27.7,30.07,WNW,302,0.0,0.0,88,0.00,,,0.00,Wunderground v.1.15,2013-02-15 02:20:00,
2013-02-14 20:25:00,30.6,27.5,30.07,WNW,302,0.0,1.0,88,0.00,,,0.00,Wunderground v.1.15,2013-02-15 02:25:00,
2013-02-14 20:30:00,30.4,27.5,30.07,WNW,302,0.0,0.0,89,0.00,,,0.00,Wunderground v.1.15,2013-02-15 02:30:00,
2013-02-14 20:35:00,30.3,27.4,30.08,WNW,302,0.0,0.0,89,0.00,,,0.00,Wunderground v.1.15,2013-02-15 02:35:00,
2013-02-14 20:40:00,30.2,27.3,30.08,WNW,302,0.0,0.0,89,0.00,,,0.00,Wunderground v.1.15,2013-02-15 02:40:00,
2013-02-14 20:45:00,30.3,27.4,30.08,WNW,302,0.0,0.0,89,0.00,,,0.00,Wunderground v.1.15,2013-02-15 02:45:00,
2013-02-14 20:54:00,30.6,28.0,30.08,NW,306,0.0,0.0,90,0.00,,,0.00,Wunderground v.1.15,2013-02-15 02:54:00,
2013-02-14 21:00:00,30.6,28.0,30.08,NW,304,1.0,1.0,90,0.00,,,0.00,Wunderground v.1.15,2013-02-15 03:00:00,
2013-02-14 21:05:00,30.7,28.1,30.08,NW,304,1.0,1.0,90,0.00,,,0.00,Wunderground v.1.15,2013-02-15 03:05:00,
2013-02-14 21:14:00,30.7,28.1,30.08,WNW,303,0.0,0.0,90,0.00,,,0.00,Wunderground v.1.15,2013-02-15 03:14:00,
2013-02-14 21:20:00,30.7,28.1,30.08,NW,305,0.0,0.0,90,0.00,,,0.00,Wunderground v.1.15,2013-02-15 03:20:00,
2013-02-14 21:25:00,30.6,28.0,30.08,NW,304,0.0,0.0,90,0.00,,,0.00,Wunderground v.1.15,2013-02-15 03:25:00,
2013-02-14 21:30:00,30.5,27.9,30.08,NW,304,0.0,0.0,90,0.00,,,0.00,Wunderground v.1.15,2013-02-15 03:30:00,
2013-02-14 21:35:00,30.4,27.8,30.08,NW,305,0.0,0.0,90,0.00,,,0.00,Wunderground v.1.15,2013-02-15 03:35:00,
2013-02-14 21:40:00,30.4,27.8,30.09,NW,305,0.0,0.0,90,0.00,,,0.00,Wunderground v.1.15,2013-02-15 03:40:00,
2013-02-14 21:45:00,30.3,27.7,30.09,NW,304,0.0,0.0,90,0.00,,,0.00,Wunderground v.1.15,2013-02-15 03:45:00,
2013-02-14 21:54:00,29.9,27.3,30.09,NW,305,0.0,0.0,90,0.00,,,0.00,Wunderground v.1.15,2013-02-15 03:54:00,
2013-02-14 22:00:00,29.7,27.1,30.09,NW,304,0.0,0.0,90,0.00,,,0.00,Wunderground v.1.15,2013-02-15 04:00:00,
2013-02-14 22:05:00,29.4,26.8,30.09,NW,305,0.0,1.0,90,0.00,,,0.00,Wunderground v.1.15,2013-02-15 04:05:00,
2013-02-14 22:15:00,29.0,26.4,30.09,NW,305,0.0,0.0,90,0.00,,,0.00,Wunderground v.1.15,2013-02-15 04:15:00,
2013-02-14 22:20:00,28.7,26.1,30.09,NW,305,0.0,0.0,90,0.00,,,0.00,Wunderground v.1.15,2013-02-15 04:20:00,
2013-02-14 22:25:00,28.5,26.2,30.09,NNW,341,1.0,5.0,91,0.00,,,0.00,Wunderground v.1.15,2013-02-15 04:25:00,
2013-02-14 22:30:00,28.5,26.2,30.09,NNW,341,1.0,1.0,91,0.00,,,0.00,Wunderground v.1.15,2013-02-15 04:30:00,
2013-02-14 22:35:00,28.5,26.2,30.09,North,355,2.0,2.0,91,0.00,,,0.00,Wunderground v.1.15,2013-02-15 04:35:00,
2013-02-14 22:40:00,28.8,26.2,30.09,NNW,334,4.0,4.0,90,0.00,,,0.00,Wunderground v.1.15,2013-02-15 04:40:00,
2013-02-14 22:45:00,28.9,26.3,30.09,NNW,329,4.0,4.0,90,0.00,,,0.00,Wunderground v.1.15,2013-02-15 04:45:00,
2013-02-14 22:54:00,29.0,25.9,30.10,NNW,331,3.0,5.0,88,0.00,,,0.00,Wunderground v.1.15,2013-02-15 04:54:00,
2013-02-14 23:00:00,28.9,25.5,30.10,NNW,337,2.0,2.0,87,0.00,,,0.00,Wunderground v.1.15,2013-02-15 05:00:00,
2013-02-14 23:05:00,28.8,25.4,30.10,NW,321,2.0,2.0,87,0.00,,,0.00,Wunderground v.1.15,2013-02-15 05:05:00,
2013-02-14 23:09:00,28.7,25.0,30.11,NNW,338,2.0,4.0,86,0.00,,,0.00,Wunderground v.1.15,2013-02-15 05:09:00,
2013-02-14 23:14:00,28.6,24.9,30.11,WNW,287,2.0,4.0,86,0.00,,,0.00,Wunderground v.1.15,2013-02-15 05:14:00,
2013-02-14 23:20:00,28.5,24.8,30.11,NW,322,1.0,1.0,86,0.00,,,0.00,Wunderground v.1.15,2013-02-15 05:20:00,
2013-02-14 23:24:00,28.5,24.8,30.11,NW,322,1.0,1.0,86,0.00,,,0.00,Wunderground v.1.15,2013-02-15 05:24:00,
2013-02-14 23:30:00,28.4,24.5,30.11,NW,322,1.0,1.0,85,0.00,,,0.00,Wunderground v.1.15,2013-02-15 05:30:00,
2013-02-14 23:35:00,28.4,24.5,30.12,NW,322,0.0,1.0,85,0.00,,,0.00,Wunderground v.1.15,2013-02-15 05:35:00,
2013-02-14 23:40:00,28.4,24.7,30.12,NW,322,1.0,1.0,86,0.00,,,0.00,Wunderground v.1.15,2013-02-15 05:40:00,
2013-02-14 23:45:00,28.3,24.4,30.12,NW,322,1.0,1.0,85,0.00,,,0.00,Wunderground v.1.15,2013-02-15 05:45:00,
2013-02-14 23:50:00,28.1,24.5,30.12,NW,322,1.0,1.0,86,0.00,,,0.00,Wunderground v.1.15,2013-02-15 05:50:00,